createdAt,value
2022-10-19T00:00:51.149Z,1.00
2022-10-19T00:01:51.210Z,1.00
2022-10-19T00:02:51.131Z,1.00
2022-10-19T00:03:51.164Z,1.00
2022-10-19T00:04:51.135Z,1.00
2022-10-19T00:05:51.113Z,1.00
2022-10-19T00:06:51.094Z,1.00
2022-10-19T00:07:51.092Z,1.00
2022-10-19T00:08:51.067Z,1.00
2022-10-19T00:09:51.067Z,1.00
2022-10-19T00:10:51.088Z,1.00
2022-10-19T00:11:51.051Z,1.00
2022-10-19T00:12:51.061Z,1.00
2022-10-19T00:13:51.036Z,1.00
2022-10-19T00:14:51.021Z,1.00
2022-10-19T00:15:51.013Z,1.00
2022-10-19T00:16:51.029Z,1.00
2022-10-19T00:17:51.048Z,1.00
2022-10-19T00:18:50.987Z,1.00
2022-10-19T00:19:50.979Z,1.00
2022-10-19T00:20:50.972Z,1.00
2022-10-19T00:22:50.970Z,1.00
2022-10-19T00:23:50.955Z,1.00
2022-10-19T00:24:50.944Z,1.00
2022-10-19T00:25:50.953Z,1.00
2022-10-19T00:26:50.947Z,1.00
2022-10-19T00:27:50.942Z,1.00
2022-10-19T00:28:51.025Z,1.00
2022-10-19T00:29:50.898Z,1.00
2022-10-19T00:30:50.908Z,1.00
2022-10-19T00:31:50.882Z,1.00
2022-10-19T00:32:50.887Z,1.00
2022-10-19T00:33:50.886Z,1.00
2022-10-19T00:34:50.878Z,1.00
2022-10-19T00:35:50.849Z,1.00
2022-10-19T00:36:50.853Z,1.00
2022-10-19T00:37:50.825Z,1.00
2022-10-19T00:38:50.837Z,1.00
2022-10-19T00:40:50.815Z,1.00
2022-10-19T00:41:50.798Z,1.00
2022-10-19T00:42:50.797Z,1.00
2022-10-19T00:43:50.782Z,1.00
2022-10-19T00:44:50.794Z,1.00
2022-10-19T00:45:50.765Z,1.00
2022-10-19T00:46:50.753Z,1.00
2022-10-19T00:47:50.746Z,1.00
2022-10-19T00:48:50.747Z,1.00
2022-10-19T00:49:50.731Z,1.00
2022-10-19T00:50:50.740Z,1.00
2022-10-19T00:51:50.713Z,1.00
2022-10-19T00:52:50.702Z,1.00
2022-10-19T00:53:50.698Z,1.00
2022-10-19T00:54:50.692Z,1.00
2022-10-19T00:55:50.681Z,1.00
2022-10-19T00:56:50.704Z,1.00
2022-10-19T00:58:50.666Z,1.00
2022-10-19T00:59:50.654Z,1.00
2022-10-19T01:00:50.683Z,1.00
2022-10-19T01:01:50.642Z,1.00
2022-10-19T01:02:50.694Z,1.00
2022-10-19T01:03:50.634Z,1.00
2022-10-19T01:04:50.613Z,1.00
2022-10-19T01:05:50.607Z,1.00
2022-10-19T01:07:50.592Z,1.00
2022-10-19T01:08:50.607Z,1.00
2022-10-19T01:09:50.582Z,1.00
2022-10-19T01:10:50.574Z,1.00
2022-10-19T01:11:50.564Z,1.00
2022-10-19T01:12:50.557Z,1.00
2022-10-19T01:13:50.556Z,1.00
2022-10-19T01:14:50.574Z,1.00
2022-10-19T01:15:50.636Z,1.00
2022-10-19T01:16:50.521Z,1.00
2022-10-19T01:17:50.517Z,1.00
2022-10-19T01:18:50.536Z,1.00
2022-10-19T01:19:50.493Z,1.00
2022-10-19T01:20:50.521Z,1.00
2022-10-19T01:21:50.483Z,1.00
2022-10-19T01:22:50.475Z,1.00
2022-10-19T01:23:50.471Z,1.00
2022-10-19T01:24:50.505Z,1.00
2022-10-19T01:25:50.460Z,1.00
2022-10-19T01:26:50.480Z,1.00
2022-10-19T01:27:50.446Z,1.00
2022-10-19T01:28:50.535Z,1.00
2022-10-19T01:29:50.421Z,1.00
2022-10-19T01:30:50.441Z,1.00
2022-10-19T01:31:50.420Z,1.00
2022-10-19T01:32:50.397Z,1.00
2022-10-19T01:33:50.451Z,1.00
2022-10-19T01:34:50.387Z,1.00
2022-10-19T01:35:50.380Z,1.00
2022-10-19T01:36:50.375Z,1.00
2022-10-19T01:37:50.365Z,1.00
2022-10-19T01:38:50.380Z,1.00
2022-10-19T01:39:50.363Z,1.00
2022-10-19T01:40:50.392Z,1.00
2022-10-19T01:41:50.331Z,1.00
2022-10-19T01:42:50.375Z,1.00
2022-10-19T01:43:50.320Z,1.00
2022-10-19T01:44:50.312Z,1.00
2022-10-19T01:45:50.309Z,1.00
2022-10-19T01:46:50.308Z,1.00
2022-10-19T01:47:50.288Z,1.00
2022-10-19T01:48:50.279Z,1.00
2022-10-19T01:49:50.274Z,1.00
2022-10-19T01:50:50.269Z,1.00
2022-10-19T01:51:50.294Z,1.00
2022-10-19T01:52:50.255Z,1.00
2022-10-19T01:53:50.240Z,1.00
2022-10-19T01:54:50.233Z,1.00
2022-10-19T01:55:50.222Z,1.00
2022-10-19T01:56:50.234Z,1.00
2022-10-19T01:57:50.222Z,1.00
2022-10-19T01:58:50.206Z,1.00
2022-10-19T01:59:50.195Z,1.00
2022-10-19T02:00:50.276Z,1.00
2022-10-19T02:01:50.177Z,1.00
2022-10-19T02:02:50.277Z,1.00
2022-10-19T02:03:50.180Z,1.00
2022-10-19T02:04:50.165Z,1.00
2022-10-19T02:05:50.170Z,1.00
2022-10-19T02:06:50.202Z,1.00
2022-10-19T02:07:50.138Z,1.00
2022-10-19T02:08:50.130Z,1.00
2022-10-19T02:09:50.111Z,1.00
2022-10-19T02:10:50.121Z,1.00
2022-10-19T02:11:51.336Z,1.00
2022-10-19T02:12:50.116Z,1.00
2022-10-19T02:13:50.107Z,1.00
2022-10-19T02:14:50.102Z,1.00
2022-10-19T02:15:50.074Z,1.00
2022-10-19T02:16:50.066Z,1.00
2022-10-19T02:17:50.061Z,1.00
2022-10-19T02:18:50.084Z,1.00
2022-10-19T02:19:50.040Z,1.00
2022-10-19T02:20:50.041Z,1.00
2022-10-19T02:21:50.032Z,1.00
2022-10-19T02:22:50.030Z,1.00
2022-10-19T02:23:51.887Z,1.00
2022-10-19T02:24:50.026Z,1.00
2022-10-19T02:25:50.001Z,1.00
2022-10-19T02:26:50.028Z,1.00
2022-10-19T02:27:50.020Z,1.00
2022-10-19T02:28:49.982Z,1.00
2022-10-19T02:29:49.968Z,1.00
2022-10-19T02:30:49.973Z,1.00
2022-10-19T02:31:49.960Z,1.00
2022-10-19T02:32:49.959Z,1.00
2022-10-19T02:33:49.968Z,1.00
2022-10-19T02:34:49.937Z,1.00
2022-10-19T02:35:49.925Z,1.00
2022-10-19T02:36:49.921Z,1.00
2022-10-19T02:37:49.913Z,1.00
2022-10-19T02:38:49.909Z,1.00
2022-10-19T02:39:49.921Z,1.00
2022-10-19T02:40:49.898Z,1.00
2022-10-19T02:41:49.886Z,1.00
2022-10-19T02:42:49.903Z,1.00
2022-10-19T02:43:49.890Z,1.00
2022-10-19T02:44:49.871Z,1.00
2022-10-19T02:45:49.877Z,1.00
2022-10-19T02:46:49.877Z,1.00
2022-10-19T02:47:49.841Z,1.00
2022-10-19T02:48:49.845Z,1.00
2022-10-19T02:49:49.834Z,1.00
2022-10-19T02:50:49.822Z,1.00
2022-10-19T02:51:49.815Z,1.00
2022-10-19T02:52:49.833Z,1.00
2022-10-19T02:53:49.802Z,1.00
2022-10-19T02:54:49.792Z,1.00
2022-10-19T02:55:49.785Z,1.00
2022-10-19T02:56:49.781Z,1.00
2022-10-19T02:57:49.822Z,1.00
2022-10-19T02:58:49.798Z,1.00
2022-10-19T02:59:49.757Z,1.00
2022-10-19T03:00:49.873Z,1.00
2022-10-19T03:01:49.742Z,1.00
2022-10-19T03:02:49.738Z,1.00
2022-10-19T03:03:49.780Z,1.00
2022-10-19T03:04:49.774Z,1.00
2022-10-19T03:05:49.707Z,1.00
2022-10-19T03:06:49.709Z,1.00
2022-10-19T03:07:49.695Z,1.00
2022-10-19T03:08:49.700Z,1.00
2022-10-19T03:09:49.687Z,1.00
2022-10-19T03:10:49.691Z,1.00
2022-10-19T03:11:49.667Z,1.00
2022-10-19T03:12:49.651Z,1.00
2022-10-19T03:13:49.649Z,1.00
2022-10-19T03:14:49.661Z,1.00
2022-10-19T03:15:49.632Z,1.00
2022-10-19T03:16:49.620Z,1.00
2022-10-19T03:17:49.636Z,1.00
2022-10-19T03:18:49.603Z,1.00
2022-10-19T03:19:49.604Z,1.00
2022-10-19T03:20:49.596Z,1.00
2022-10-19T03:21:49.581Z,1.00
2022-10-19T03:22:49.604Z,1.00
2022-10-19T03:23:49.588Z,1.00
2022-10-19T03:24:49.601Z,1.00
2022-10-19T03:25:49.556Z,1.00
2022-10-19T03:26:49.551Z,1.00
2022-10-19T03:27:49.539Z,1.00
2022-10-19T03:28:49.559Z,1.00
2022-10-19T03:29:49.531Z,1.00
2022-10-19T03:30:49.532Z,1.00
2022-10-19T03:31:49.510Z,1.00
2022-10-19T03:32:49.505Z,1.00
2022-10-19T03:33:49.517Z,1.00
2022-10-19T03:34:49.490Z,1.00
2022-10-19T03:35:49.471Z,1.00
2022-10-19T03:36:49.481Z,1.00
2022-10-19T03:37:49.470Z,1.00
2022-10-19T03:38:49.468Z,1.00
2022-10-19T03:39:49.465Z,1.00
2022-10-19T03:40:49.452Z,1.00
2022-10-19T03:41:49.437Z,1.00
2022-10-19T03:42:49.427Z,1.00
2022-10-19T03:43:49.475Z,1.00
2022-10-19T03:44:49.413Z,1.00
2022-10-19T03:45:49.413Z,1.00
2022-10-19T03:46:49.401Z,1.00
2022-10-19T03:47:49.447Z,1.00
2022-10-19T03:48:49.383Z,1.00
2022-10-19T03:49:49.411Z,1.00
2022-10-19T03:50:49.369Z,1.00
2022-10-19T03:51:49.361Z,1.00
2022-10-19T03:52:49.435Z,1.00
2022-10-19T03:53:49.361Z,1.00
2022-10-19T03:54:49.331Z,1.00
2022-10-19T03:55:49.327Z,1.00
2022-10-19T03:56:49.355Z,1.00
2022-10-19T03:57:49.335Z,1.00
2022-10-19T03:58:49.309Z,1.00
2022-10-19T03:59:49.320Z,1.00
2022-10-19T04:00:49.353Z,1.00
2022-10-19T04:01:49.310Z,1.00
2022-10-19T04:02:49.284Z,1.00
2022-10-19T04:03:49.277Z,1.00
2022-10-19T04:04:49.271Z,1.00
2022-10-19T04:05:49.261Z,1.00
2022-10-19T04:06:49.251Z,1.00
2022-10-19T04:07:49.263Z,1.00
2022-10-19T04:08:49.240Z,1.00
2022-10-19T04:09:49.243Z,1.00
2022-10-19T04:10:49.249Z,1.00
2022-10-19T04:11:49.214Z,1.00
2022-10-19T04:12:53.664Z,1.00
2022-10-19T04:13:49.199Z,1.00
2022-10-19T04:14:57.693Z,1.00
2022-10-19T04:15:50.202Z,1.00
2022-10-19T04:16:49.202Z,1.00
2022-10-19T04:17:49.173Z,1.00
2022-10-19T04:18:49.170Z,1.00
2022-10-19T04:19:49.158Z,1.00
2022-10-19T04:20:49.161Z,1.00
2022-10-19T04:21:49.146Z,1.00
2022-10-19T04:22:49.163Z,1.00
2022-10-19T04:23:49.127Z,1.00
2022-10-19T04:24:49.121Z,1.00
2022-10-19T04:25:49.120Z,1.00
2022-10-19T04:26:49.105Z,1.00
2022-10-19T04:27:49.096Z,1.00
2022-10-19T04:28:49.154Z,1.00
2022-10-19T04:29:49.101Z,1.00
2022-10-19T04:30:49.065Z,1.00
2022-10-19T04:31:49.069Z,1.00
2022-10-19T04:32:49.063Z,1.00
2022-10-19T04:33:49.060Z,1.00
2022-10-19T04:34:49.064Z,1.00
2022-10-19T04:35:49.037Z,1.00
2022-10-19T04:36:49.034Z,1.00
2022-10-19T04:37:49.018Z,1.00
2022-10-19T04:38:49.017Z,1.00
2022-10-19T04:39:49.000Z,1.00
2022-10-19T04:40:49.017Z,1.00
2022-10-19T04:41:48.985Z,1.00
2022-10-19T04:42:48.981Z,1.00
2022-10-19T04:43:48.981Z,1.00
2022-10-19T04:44:48.969Z,1.00
2022-10-19T04:45:48.954Z,1.00
2022-10-19T04:46:48.971Z,1.00
2022-10-19T04:47:48.938Z,1.00
2022-10-19T04:48:48.937Z,1.00
2022-10-19T04:49:48.927Z,1.00
2022-10-19T04:50:48.925Z,1.00
2022-10-19T04:51:48.923Z,1.00
2022-10-19T04:52:48.913Z,1.00
2022-10-19T04:53:48.894Z,1.00
2022-10-19T04:54:48.908Z,1.00
2022-10-19T04:55:48.881Z,1.00
2022-10-19T04:56:48.876Z,1.00
2022-10-19T04:57:48.872Z,1.00
2022-10-19T04:58:48.851Z,1.00
2022-10-19T04:59:48.838Z,1.00
2022-10-19T05:00:48.875Z,1.00
2022-10-19T05:01:48.852Z,1.00
2022-10-19T05:02:48.833Z,1.00
2022-10-19T05:03:48.851Z,1.00
2022-10-19T05:04:48.857Z,0.00
2022-10-19T05:05:48.796Z,0.00
2022-10-19T05:06:48.788Z,0.00
2022-10-19T05:07:48.787Z,0.00
2022-10-19T05:08:48.784Z,0.00
2022-10-19T05:09:48.791Z,0.00
2022-10-19T05:10:48.781Z,0.00
2022-10-19T05:11:48.754Z,0.00
2022-10-19T05:12:48.741Z,0.00
2022-10-19T05:13:48.734Z,0.00
2022-10-19T05:14:48.796Z,1.00
2022-10-19T05:15:48.721Z,1.00
2022-10-19T05:16:48.724Z,1.00
2022-10-19T05:17:48.708Z,1.00
2022-10-19T05:18:48.705Z,1.00
2022-10-19T05:19:48.700Z,1.00
2022-10-19T05:20:48.710Z,1.00
2022-10-19T05:21:48.681Z,2.00
2022-10-19T05:22:48.682Z,1.00
2022-10-19T05:23:48.673Z,1.00
2022-10-19T05:24:48.667Z,2.00
2022-10-19T05:25:48.668Z,1.00
2022-10-19T05:26:48.667Z,2.00
2022-10-19T05:27:48.640Z,2.00
2022-10-19T05:28:48.685Z,3.00
2022-10-19T05:29:48.624Z,4.00
2022-10-19T05:30:49.126Z,4.00
2022-10-19T05:31:48.640Z,4.00
2022-10-19T05:32:48.603Z,4.00
2022-10-19T05:33:48.595Z,6.00
2022-10-19T05:34:48.585Z,5.00
2022-10-19T05:35:48.587Z,7.00
2022-10-19T05:36:48.569Z,8.00
2022-10-19T05:37:48.582Z,9.00
2022-10-19T05:38:48.558Z,11.00
2022-10-19T05:39:48.545Z,11.00
2022-10-19T05:40:52.954Z,14.00
2022-10-19T05:41:49.529Z,15.00
2022-10-19T05:42:48.530Z,17.00
2022-10-19T05:43:48.527Z,18.00
2022-10-19T05:44:48.542Z,20.00
2022-10-19T05:45:48.499Z,21.00
2022-10-19T05:46:48.494Z,23.00
2022-10-19T05:47:48.490Z,24.00
2022-10-19T05:48:48.481Z,25.00
2022-10-19T05:49:48.473Z,27.00
2022-10-19T05:50:48.484Z,28.00
2022-10-19T05:51:48.453Z,30.00
2022-10-19T05:52:48.455Z,31.00
2022-10-19T05:53:48.466Z,34.00
2022-10-19T05:54:48.445Z,36.00
2022-10-19T05:55:48.442Z,39.00
2022-10-19T05:56:48.423Z,42.00
2022-10-19T05:57:48.461Z,46.00
2022-10-19T05:58:48.399Z,49.00
2022-10-19T05:59:48.397Z,57.00
2022-10-19T06:00:48.390Z,64.00
2022-10-19T06:01:48.434Z,68.00
2022-10-19T06:02:48.373Z,73.00
2022-10-19T06:03:48.384Z,82.00
2022-10-19T06:04:48.389Z,87.00
2022-10-19T06:05:48.362Z,89.00
2022-10-19T06:06:48.350Z,95.00
2022-10-19T06:07:48.344Z,103.00
2022-10-19T06:08:48.366Z,108.00
2022-10-19T06:09:48.337Z,108.00
2022-10-19T06:10:48.337Z,112.00
2022-10-19T06:11:48.319Z,125.00
2022-10-19T06:12:48.305Z,124.00
2022-10-19T06:13:48.324Z,125.00
2022-10-19T06:14:48.360Z,126.00
2022-10-19T06:15:48.294Z,144.00
2022-10-19T06:16:48.281Z,158.00
2022-10-19T06:17:48.263Z,167.00
2022-10-19T06:18:48.274Z,178.00
2022-10-19T06:19:48.255Z,186.00
2022-10-19T06:20:48.273Z,193.00
2022-10-19T06:21:48.264Z,186.00
2022-10-19T06:22:48.234Z,217.00
2022-10-19T06:23:48.237Z,232.00
2022-10-19T06:24:48.225Z,210.00
2022-10-19T06:25:48.214Z,195.00
2022-10-19T06:26:48.226Z,195.00
2022-10-19T06:27:48.228Z,194.00
2022-10-19T06:28:48.194Z,196.00
2022-10-19T06:29:48.179Z,190.00
2022-10-19T06:30:48.260Z,184.00
2022-10-19T06:31:48.183Z,183.00
2022-10-19T06:32:48.261Z,181.00
2022-10-19T06:33:49.471Z,202.00
2022-10-19T06:34:48.841Z,226.00
2022-10-19T06:35:48.153Z,249.00
2022-10-19T06:36:48.136Z,241.00
2022-10-19T06:37:48.121Z,237.00
2022-10-19T06:38:48.150Z,256.00
2022-10-19T06:39:48.145Z,247.00
2022-10-19T06:40:48.105Z,237.00
2022-10-19T06:41:48.101Z,239.00
2022-10-19T06:42:48.110Z,239.00
2022-10-19T06:43:48.090Z,228.00
2022-10-19T06:44:48.100Z,225.00
2022-10-19T06:45:48.093Z,235.00
2022-10-19T06:46:48.067Z,227.00
2022-10-19T06:48:48.045Z,230.00
2022-10-19T06:49:48.070Z,228.00
2022-10-19T06:50:48.034Z,216.00
2022-10-19T06:51:48.030Z,218.00
2022-10-19T06:52:48.014Z,223.00
2022-10-19T06:53:49.708Z,220.00
2022-10-19T06:54:49.014Z,225.00
2022-10-19T06:55:48.000Z,232.00
2022-10-19T06:57:47.978Z,226.00
2022-10-19T06:58:47.973Z,242.00
2022-10-19T06:59:50.186Z,259.00
2022-10-19T07:00:48.012Z,268.00
2022-10-19T07:01:47.976Z,255.00
2022-10-19T07:02:47.939Z,243.00
2022-10-19T07:03:47.929Z,250.00
2022-10-19T07:04:47.929Z,256.00
2022-10-19T07:05:47.916Z,252.00
2022-10-19T07:06:47.915Z,232.00
2022-10-19T07:07:47.947Z,237.00
2022-10-19T07:08:47.894Z,233.00
2022-10-19T07:09:47.887Z,229.00
2022-10-19T07:10:47.882Z,243.00
2022-10-19T07:11:47.862Z,257.00
2022-10-19T07:12:47.865Z,259.00
2022-10-19T07:13:47.880Z,258.00
2022-10-19T07:14:47.849Z,262.00
2022-10-19T07:15:47.834Z,258.00
2022-10-19T07:16:47.852Z,261.00
2022-10-19T07:17:47.830Z,262.00
2022-10-19T07:18:47.825Z,258.00
2022-10-19T07:19:47.813Z,260.00
2022-10-19T07:20:47.800Z,260.00
2022-10-19T07:21:47.785Z,247.00
2022-10-19T07:22:47.805Z,239.00
2022-10-19T07:23:47.799Z,243.00
2022-10-19T07:24:47.769Z,240.00
2022-10-19T07:25:47.762Z,253.00
2022-10-19T07:26:47.770Z,269.00
2022-10-19T07:27:47.755Z,270.00
2022-10-19T07:28:47.740Z,291.00
2022-10-19T07:29:47.742Z,324.00
2022-10-19T07:30:47.724Z,332.00
2022-10-19T07:31:47.712Z,337.00
2022-10-19T07:32:47.703Z,350.00
2022-10-19T07:33:47.692Z,356.00
2022-10-19T07:34:47.712Z,355.00
2022-10-19T07:35:47.690Z,377.00
2022-10-19T07:36:47.675Z,395.00
2022-10-19T07:37:47.669Z,438.00
2022-10-19T07:38:47.667Z,479.00
2022-10-19T07:39:47.650Z,384.00
2022-10-19T07:43:33.196Z,470.00
2022-10-19T07:44:19.268Z,492.00
2022-10-19T07:45:19.252Z,507.00
2022-10-19T07:46:19.274Z,512.00
2022-10-19T07:47:19.264Z,561.00
2022-10-19T07:48:19.237Z,613.00
2022-10-19T07:49:19.229Z,681.00
2022-10-19T07:50:19.232Z,708.00
2022-10-19T07:51:19.252Z,710.00
2022-10-19T07:52:19.233Z,654.00
2022-10-19T07:53:19.197Z,634.00
2022-10-19T07:54:19.196Z,590.00
2022-10-19T07:55:19.209Z,646.00
2022-10-19T07:56:19.186Z,746.00
2022-10-19T07:57:19.182Z,780.00
2022-10-19T07:58:19.291Z,846.00
2022-10-19T07:59:19.176Z,1005.00
2022-10-19T08:00:19.155Z,992.00
2022-10-19T08:01:19.136Z,909.00
2022-10-19T08:02:19.163Z,875.00
2022-10-19T08:04:13.848Z,814.00
2022-10-19T08:05:20.188Z,965.00
2022-10-19T08:06:19.095Z,1017.00
2022-10-19T08:07:19.111Z,929.00
2022-10-19T08:08:19.083Z,868.00
2022-10-19T08:09:47.342Z,969.00
2022-10-19T08:10:20.108Z,977.00
2022-10-19T08:11:19.073Z,807.00
2022-10-19T08:12:19.064Z,821.00
2022-10-19T08:13:19.043Z,825.00
2022-10-19T08:14:19.041Z,1133.00
2022-10-19T08:15:19.049Z,1460.00
2022-10-19T08:16:19.023Z,1329.00
2022-10-19T08:17:19.046Z,1305.00
2022-10-19T08:18:19.050Z,1529.00
2022-10-19T08:19:18.993Z,2165.00
2022-10-19T08:20:19.002Z,1675.00
2022-10-19T08:21:18.984Z,1135.00
2022-10-19T08:22:18.973Z,1158.00
2022-10-19T08:23:18.988Z,1155.00
2022-10-19T08:24:18.988Z,1067.00
2022-10-19T08:25:18.968Z,1001.00
2022-10-19T08:26:18.950Z,963.00
2022-10-19T08:27:18.930Z,931.00
2022-10-19T08:28:18.931Z,966.00
2022-10-19T08:29:18.963Z,923.00
2022-10-19T08:30:18.919Z,953.00
2022-10-19T08:31:18.959Z,1209.00
2022-10-19T08:32:18.894Z,1268.00
2022-10-19T08:33:18.892Z,1246.00
2022-10-19T08:34:18.900Z,1015.00
2022-10-19T08:35:18.865Z,1370.00
2022-10-19T08:36:18.864Z,1526.00
2022-10-19T08:37:26.374Z,1647.00
2022-10-19T08:38:19.846Z,1438.00
2022-10-19T08:39:18.837Z,1542.00
2022-10-19T08:40:18.835Z,1868.00
2022-10-19T08:41:18.845Z,2772.00
2022-10-19T08:42:18.811Z,4462.00
2022-10-19T08:43:18.817Z,6549.00
2022-10-19T08:44:18.799Z,6305.00
2022-10-19T08:45:18.789Z,4630.00
2022-10-19T08:46:18.800Z,4618.00
2022-10-19T08:47:23.253Z,5681.00
2022-10-19T08:48:18.783Z,4944.00
2022-10-19T08:49:18.778Z,2453.00
2022-10-19T08:50:18.753Z,3804.00
2022-10-19T08:51:18.761Z,10037.00
2022-10-19T08:52:18.761Z,10710.00
2022-10-19T08:53:18.733Z,14249.00
2022-10-19T08:54:18.722Z,7961.00
2022-10-19T08:55:20.569Z,12876.00
2022-10-19T08:56:38.863Z,9837.00
2022-10-19T08:57:19.697Z,5772.00
2022-10-19T08:58:18.688Z,15726.00
2022-10-19T08:59:18.679Z,16742.00
2022-10-19T09:00:18.682Z,15834.00
2022-10-19T09:01:18.700Z,12636.00
2022-10-19T09:02:18.660Z,17215.00
2022-10-19T09:03:27.130Z,15280.00
2022-10-19T09:04:19.652Z,11960.00
2022-10-19T09:05:18.630Z,15426.00
2022-10-19T09:06:18.628Z,15488.00
2022-10-19T09:07:18.640Z,15954.00
2022-10-19T09:08:18.606Z,17033.00
2022-10-19T09:09:18.602Z,16722.00
2022-10-19T09:10:18.589Z,16406.00
2022-10-19T09:11:18.589Z,13083.00
2022-10-19T09:12:18.577Z,14135.00
2022-10-19T09:13:18.587Z,16191.00
2022-10-19T09:14:18.554Z,18226.00
2022-10-19T09:15:18.560Z,17063.00
2022-10-19T09:16:18.538Z,13568.00
2022-10-19T09:17:18.535Z,8031.00
2022-10-19T09:18:18.549Z,16004.00
2022-10-19T09:19:18.520Z,16734.00
2022-10-19T09:20:18.561Z,14752.00
2022-10-19T09:21:18.495Z,14493.00
2022-10-19T09:22:18.498Z,17131.00
2022-10-19T09:23:18.487Z,16060.00
2022-10-19T09:24:18.498Z,18978.00
2022-10-19T09:25:18.472Z,18870.00
2022-10-19T09:26:18.464Z,19500.00
2022-10-19T09:27:18.458Z,20183.00
2022-10-19T09:28:18.465Z,21722.00
2022-10-19T09:29:18.441Z,24395.00
2022-10-19T09:30:18.513Z,26472.00
2022-10-19T09:31:18.426Z,26879.00
2022-10-19T09:32:18.424Z,61450.00
2022-10-19T09:33:18.430Z,61311.00
2022-10-19T09:34:18.411Z,60953.00
2022-10-19T09:35:18.425Z,60766.00
2022-10-19T09:36:23.047Z,60789.00
2022-10-19T09:37:25.708Z,60353.00
2022-10-19T09:38:19.384Z,60243.00
2022-10-19T09:39:18.370Z,60178.00
2022-10-19T09:40:18.419Z,60131.00
2022-10-19T09:41:18.378Z,60138.00
2022-10-19T09:42:18.352Z,59704.00
2022-10-19T09:43:18.342Z,59527.00
2022-10-19T09:44:18.330Z,59477.00
2022-10-19T09:45:18.331Z,59309.00
2022-10-19T09:46:20.316Z,59336.00
2022-10-19T09:47:18.344Z,59626.00
2022-10-19T09:48:18.326Z,29008.00
2022-10-19T09:49:18.298Z,21376.00
2022-10-19T09:50:18.386Z,14919.00
2022-10-19T09:51:18.314Z,10155.00
2022-10-19T09:52:18.290Z,7318.00
2022-10-19T09:53:18.271Z,5953.00
2022-10-19T09:54:18.286Z,5296.00
2022-10-19T09:55:18.260Z,5198.00
2022-10-19T09:56:18.250Z,4798.00
2022-10-19T09:57:18.266Z,4891.00
2022-10-19T09:58:18.259Z,4647.00
2022-10-19T09:59:18.230Z,4976.00
2022-10-19T10:00:18.221Z,4914.00
2022-10-19T10:01:18.240Z,4861.00
2022-10-19T10:02:18.224Z,4905.00
2022-10-19T10:03:18.207Z,4719.00
2022-10-19T10:04:18.200Z,4696.00
2022-10-19T10:05:18.197Z,4790.00
2022-10-19T10:06:18.209Z,4705.00
2022-10-19T10:07:18.184Z,4758.00
2022-10-19T10:08:18.166Z,4752.00
2022-10-19T10:09:18.169Z,4812.00
2022-10-19T10:10:18.167Z,4805.00
2022-10-19T10:11:18.180Z,4840.00
2022-10-19T10:12:18.143Z,4777.00
2022-10-19T10:13:18.131Z,4817.00
2022-10-19T10:14:18.131Z,4876.00
2022-10-19T10:15:18.121Z,4954.00
2022-10-19T10:16:18.124Z,5011.00
2022-10-19T10:17:18.134Z,5004.00
2022-10-19T10:18:18.113Z,5159.00
2022-10-19T10:19:18.117Z,5357.00
2022-10-19T10:20:18.090Z,5461.00
2022-10-19T10:21:20.537Z,5377.00
2022-10-19T10:22:18.095Z,5656.00
2022-10-19T10:23:18.066Z,5812.00
2022-10-19T10:24:18.062Z,5203.00
2022-10-19T10:25:18.082Z,4814.00
2022-10-19T10:26:18.041Z,5565.00
2022-10-19T10:27:18.031Z,5515.00
2022-10-19T10:28:18.033Z,5344.00
2022-10-19T10:29:18.027Z,5107.00
2022-10-19T10:30:18.011Z,4949.00
2022-10-19T10:31:18.034Z,4668.00
2022-10-19T10:32:17.999Z,4956.00
2022-10-19T10:33:26.910Z,4335.00
2022-10-19T10:34:23.164Z,5138.00
2022-10-19T10:35:18.981Z,2632.00
2022-10-19T10:36:18.007Z,4259.00
2022-10-19T10:37:17.967Z,4779.00
2022-10-19T10:38:17.951Z,4418.00
2022-10-19T10:39:17.962Z,3743.00
2022-10-19T10:40:21.330Z,4679.00
2022-10-19T10:41:17.974Z,3864.00
2022-10-19T10:42:17.929Z,3935.00
2022-10-19T10:43:17.925Z,4609.00
2022-10-19T10:44:17.934Z,4014.00
2022-10-19T10:45:17.910Z,2266.00
2022-10-19T10:46:17.916Z,2294.00
2022-10-19T10:47:17.923Z,4780.00
2022-10-19T10:48:17.907Z,1939.00
2022-10-19T10:49:17.872Z,4353.00
2022-10-19T10:50:17.868Z,4532.00
2022-10-19T10:51:17.889Z,4489.00
2022-10-19T10:52:17.855Z,4371.00
2022-10-19T10:53:17.856Z,4449.00
2022-10-19T10:54:17.863Z,4341.00
2022-10-19T10:55:17.836Z,4346.00
2022-10-19T10:56:17.818Z,4279.00
2022-10-19T10:57:17.849Z,4048.00
2022-10-19T10:58:17.816Z,4168.00
2022-10-19T10:59:17.814Z,4364.00
2022-10-19T11:00:17.799Z,4478.00
2022-10-19T11:01:17.799Z,4498.00
2022-10-19T11:02:17.810Z,3905.00
2022-10-19T11:03:17.764Z,3452.00
2022-10-19T11:04:17.763Z,4650.00
2022-10-19T11:05:17.772Z,4581.00
2022-10-19T11:06:17.795Z,2086.00
2022-10-19T11:07:17.747Z,4222.00
2022-10-19T11:08:17.737Z,4583.00
2022-10-19T11:09:17.737Z,4532.00
2022-10-19T11:10:17.755Z,4513.00
2022-10-19T11:11:17.715Z,4330.00
2022-10-19T11:12:17.712Z,4528.00
2022-10-19T11:13:17.694Z,1990.00
2022-10-19T11:14:17.689Z,3956.00
2022-10-19T11:15:17.775Z,2740.00
2022-10-19T11:16:17.729Z,3685.00
2022-10-19T11:17:17.664Z,4463.00
2022-10-19T11:18:17.706Z,2849.00
2022-10-19T11:19:17.649Z,3866.00
2022-10-19T11:20:17.659Z,4423.00
2022-10-19T11:21:17.653Z,4081.00
2022-10-19T11:22:17.655Z,2476.00
2022-10-19T11:23:17.634Z,4220.00
2022-10-19T11:24:17.662Z,2079.00
2022-10-19T11:25:17.598Z,3886.00
2022-10-19T11:26:17.616Z,4020.00
2022-10-19T11:27:17.631Z,3826.00
2022-10-19T11:28:17.578Z,3735.00
2022-10-19T11:29:17.566Z,3869.00
2022-10-19T11:30:17.571Z,3857.00
2022-10-19T11:31:17.564Z,3873.00
2022-10-19T11:32:17.554Z,3874.00
2022-10-19T11:33:17.573Z,3763.00
2022-10-19T11:34:18.060Z,3795.00
2022-10-19T11:35:17.528Z,3729.00
2022-10-19T11:36:17.522Z,3781.00
2022-10-19T11:37:17.519Z,3746.00
2022-10-19T11:38:20.705Z,3688.00
2022-10-19T11:39:18.514Z,3630.00
2022-10-19T11:40:21.842Z,3668.00
2022-10-19T11:41:18.607Z,3577.00
2022-10-19T11:42:17.482Z,3529.00
2022-10-19T11:43:17.467Z,3378.00
2022-10-19T11:44:17.537Z,3530.00
2022-10-19T11:45:17.452Z,3484.00
2022-10-19T11:46:17.452Z,3510.00
2022-10-19T11:47:17.445Z,3418.00
2022-10-19T11:48:17.440Z,3429.00
2022-10-19T11:49:17.435Z,3500.00
2022-10-19T11:50:17.459Z,3481.00
2022-10-19T11:51:21.809Z,3449.00
2022-10-19T11:52:17.402Z,3408.00
2022-10-19T11:53:17.392Z,3396.00
2022-10-19T11:54:17.389Z,3347.00
2022-10-19T11:55:17.408Z,3315.00
2022-10-19T11:56:17.391Z,3291.00
2022-10-19T11:57:17.368Z,3259.00
2022-10-19T11:58:17.359Z,3230.00
2022-10-19T11:59:17.386Z,3198.00
2022-10-19T12:00:37.704Z,3100.00
2022-10-19T12:01:18.355Z,3095.00
2022-10-19T12:02:17.441Z,3104.00
2022-10-19T12:03:17.329Z,3109.00
2022-10-19T12:04:17.317Z,3092.00
2022-10-19T12:05:17.306Z,3064.00
2022-10-19T12:06:17.298Z,3029.00
2022-10-19T12:07:17.312Z,3004.00
2022-10-19T12:08:17.299Z,2989.00
2022-10-19T12:09:17.351Z,2991.00
2022-10-19T12:10:17.274Z,2919.00
2022-10-19T12:11:17.273Z,2933.00
2022-10-19T12:12:17.286Z,2813.00
2022-10-19T12:13:17.249Z,2963.00
2022-10-19T12:14:17.252Z,2872.00
2022-10-19T12:15:17.335Z,2923.00
2022-10-19T12:16:17.233Z,2920.00
2022-10-19T12:17:17.237Z,2905.00
2022-10-19T12:18:17.243Z,2895.00
2022-10-19T12:19:17.215Z,2886.00
2022-10-19T12:20:19.709Z,2862.00
2022-10-19T12:21:17.200Z,2845.00
2022-10-19T12:22:17.192Z,2764.00
2022-10-19T12:23:17.190Z,2739.00
2022-10-19T12:24:17.175Z,2661.00
2022-10-19T12:25:17.174Z,2720.00
2022-10-19T12:27:17.149Z,2504.00
2022-10-19T12:28:17.167Z,2347.00
2022-10-19T12:29:17.127Z,2423.00
2022-10-19T12:30:17.133Z,2349.00
2022-10-19T12:31:17.118Z,2373.00
2022-10-19T12:32:17.113Z,2510.00
2022-10-19T12:33:17.123Z,2476.00
2022-10-19T12:34:17.115Z,2462.00
2022-10-19T12:35:17.219Z,2393.00
2022-10-19T12:36:17.072Z,2401.00
2022-10-19T12:37:17.072Z,2317.00
2022-10-19T12:38:17.067Z,2337.00
2022-10-19T12:39:17.064Z,2405.00
2022-10-19T12:40:17.062Z,2380.00
2022-10-19T12:41:17.037Z,2330.00
2022-10-19T12:42:17.038Z,2297.00
2022-10-19T12:43:17.022Z,2320.00
2022-10-19T12:44:17.107Z,2321.00
2022-10-19T12:45:17.024Z,2308.00
2022-10-19T12:46:17.003Z,2333.00
2022-10-19T12:47:17.008Z,2335.00
2022-10-19T12:48:17.023Z,2316.00
2022-10-19T12:49:16.978Z,2287.00
2022-10-19T12:50:17.009Z,2350.00